createdAt,value
2023-02-28T00:06:33.678Z,100
2023-02-28T00:16:33.640Z,100
2023-02-28T00:26:33.635Z,100
2023-02-28T00:36:33.637Z,100
2023-02-28T00:46:33.695Z,100
2023-02-28T00:56:33.697Z,100
2023-02-28T01:06:33.669Z,100
2023-02-28T01:16:33.658Z,100
2023-02-28T01:26:33.663Z,100
2023-02-28T01:36:33.657Z,100
2023-02-28T01:46:33.737Z,100
2023-02-28T01:56:33.661Z,100
2023-02-28T02:06:33.759Z,100
2023-02-28T02:16:33.685Z,100
2023-02-28T02:26:33.721Z,100
2023-02-28T02:36:33.745Z,100
2023-02-28T02:46:33.769Z,100
2023-02-28T02:56:33.711Z,100
2023-02-28T03:06:33.759Z,100
2023-02-28T03:16:33.768Z,100
2023-02-28T03:26:33.766Z,100
2023-02-28T03:36:33.796Z,100
2023-02-28T03:46:33.758Z,100
2023-02-28T03:56:33.753Z,100
2023-02-28T04:06:33.750Z,100
2023-02-28T04:16:35.795Z,100
2023-02-28T04:26:33.855Z,100
2023-02-28T04:36:33.750Z,100
2023-02-28T04:46:33.804Z,100
2023-02-28T04:56:33.764Z,100
2023-02-28T05:06:33.828Z,100
2023-02-28T05:16:34.001Z,100
2023-02-28T05:26:33.850Z,100
2023-02-28T05:36:33.837Z,100
2023-02-28T05:46:33.815Z,100
2023-02-28T05:56:33.907Z,100
2023-02-28T06:06:36.432Z,100
2023-02-28T06:16:33.865Z,100
2023-02-28T06:26:33.860Z,100
2023-02-28T06:36:33.860Z,100
2023-02-28T06:46:34.041Z,100
2023-02-28T06:56:33.870Z,100
2023-02-28T07:06:33.917Z,100
2023-02-28T07:16:33.926Z,100
2023-02-28T07:26:34.026Z,100
2023-02-28T07:36:33.862Z,100
2023-02-28T07:46:34.239Z,100
2023-02-28T07:56:33.968Z,100
2023-02-28T08:06:33.904Z,100
2023-02-28T08:16:33.925Z,100
2023-02-28T08:26:33.962Z,100
2023-02-28T08:36:33.995Z,100
2023-02-28T08:46:33.959Z,100
2023-02-28T08:56:33.957Z,100
2023-02-28T09:06:34.006Z,100
2023-02-28T09:16:34.482Z,100
2023-02-28T09:26:35.462Z,100
2023-02-28T09:36:43.386Z,100
2023-02-28T09:46:34.317Z,100
2023-02-28T09:56:33.950Z,100
2023-02-28T10:06:33.995Z,100
2023-02-28T10:16:33.996Z,100
2023-02-28T10:26:34.013Z,99
2023-02-28T10:36:35.836Z,95
2023-02-28T10:46:34.044Z,94
2023-02-28T10:56:34.514Z,91
2023-02-28T11:06:33.989Z,87
2023-02-28T11:16:34.062Z,85
2023-02-28T11:26:34.031Z,85
2023-02-28T11:36:33.997Z,82
2023-02-28T11:46:34.075Z,80
2023-02-28T11:56:34.010Z,78
2023-02-28T12:06:34.003Z,84
2023-02-28T12:16:34.076Z,83
2023-02-28T12:26:34.068Z,83
2023-02-28T12:36:33.992Z,85
2023-02-28T12:46:34.168Z,82
2023-02-28T12:56:33.994Z,82
2023-02-28T13:06:34.067Z,85
2023-02-28T13:16:35.236Z,82
2023-02-28T13:26:34.007Z,81
2023-02-28T13:36:33.995Z,82
2023-02-28T13:46:34.118Z,80
2023-02-28T13:56:34.012Z,81
2023-02-28T14:06:34.078Z,83
2023-02-28T14:16:34.086Z,81
2023-02-28T14:26:34.091Z,84
2023-02-28T14:36:33.991Z,84
2023-02-28T14:46:34.059Z,82
2023-02-28T14:56:34.043Z,85
2023-02-28T15:06:34.065Z,85
2023-02-28T15:16:34.084Z,88
2023-02-28T15:26:34.025Z,88
2023-02-28T15:36:34.013Z,90
2023-02-28T15:46:34.048Z,92
2023-02-28T15:56:34.026Z,95
2023-02-28T16:06:34.083Z,98
2023-02-28T16:16:34.093Z,97
2023-02-28T16:26:34.020Z,100
2023-02-28T16:36:34.076Z,100
2023-02-28T16:46:34.159Z,100
2023-02-28T16:56:34.059Z,100
2023-02-28T17:06:34.180Z,100
2023-02-28T17:16:34.275Z,100
2023-02-28T17:26:34.085Z,100
2023-02-28T17:36:34.076Z,100
2023-02-28T17:46:34.219Z,100
2023-02-28T17:56:34.066Z,100
2023-02-28T18:06:34.117Z,100
2023-02-28T18:16:34.210Z,100
2023-02-28T18:26:34.117Z,100
2023-02-28T18:36:34.179Z,100
2023-02-28T18:46:34.225Z,100
2023-02-28T18:56:34.093Z,100
2023-02-28T19:06:34.093Z,100
2023-02-28T19:16:34.242Z,100
2023-02-28T19:26:34.171Z,100
2023-02-28T19:36:34.100Z,100
2023-02-28T19:46:34.133Z,100
2023-02-28T19:56:34.141Z,100
2023-02-28T20:06:34.169Z,100
2023-02-28T20:16:34.177Z,100
2023-02-28T20:26:34.135Z,100
2023-02-28T20:36:34.130Z,100
2023-02-28T20:46:34.341Z,100
2023-02-28T20:56:34.352Z,100
2023-02-28T21:06:34.169Z,100
2023-02-28T21:16:35.844Z,100
2023-02-28T21:26:34.208Z,100
2023-02-28T21:36:34.153Z,100
2023-02-28T21:46:34.572Z,100
2023-02-28T21:56:34.330Z,100
2023-02-28T22:06:34.211Z,100
2023-02-28T22:16:48.327Z,100
2023-02-28T22:26:34.226Z,100
2023-02-28T22:36:34.229Z,100
2023-02-28T22:46:34.684Z,100
2023-02-28T22:56:34.503Z,100
2023-02-28T23:06:34.464Z,100
2023-02-28T23:16:34.646Z,100
2023-02-28T23:26:34.284Z,100
2023-02-28T23:36:34.439Z,100
2023-02-28T23:46:34.254Z,100
2023-02-28T23:56:34.244Z,100
